Hlavní strana
METAR-TAF:

METAR-TAF

Letiště :

Bamako, Mali

zeměpisná šířka: 12-32N, zeměpisná délka: 007-57W, výška: 380 m

Aktuální stav počasí

Zpráva byla vytvořena před 27 minutami, v 00:00 UTC
Jihojihozápadní vítr 2 kt
Teplota 31°C
Vlhkost vzduchu 38%
Tlak 1012 hPa
Viditelnost 10 km a více
Žádná oblačnost pod 1500 m, nevyskytují se cumulonimby.

METAR: GABS 200000Z 21002KT CAVOK 31/15 Q1012 NOSIG

Čas: 00:27 (00:27 UTC)

Předpověď počasí

Zpráva byla vytvořena před 1 hodinou a 2 minutami, v 23:25 UTC
Předpověď platná od 20 v 00 UTC do 21 v 06 UTC
Jihojihozápadní vítr 10 kt
Viditelnost 10 km a více
Žádná oblačnost pod 1500 m, nevyskytují se cumulonimby.
Pravděpodobnost 40% :
Dočasný
od 20 v 15 UTC do 20 v 23 UTC
vítr z různých směrů 16 kt s nárazy do 30 kt
Viditelnost: 4000 m
Polojasno ve výšce 3000 ft
Skoro jasno ve výšce 4000 ft, Cumulonimbus.
zvířený prach, bouřka, déšť

TAF: GABS 192325Z 2000/2106 21010KT CAVOK PROB40 TEMPO 2015/2023 VRB16G30KT 4000 BLDU TSRA SCT030 FEW040CB

Stav a předpovědi počasí z více než 4 000 letišť (zprávy METAR a TAF).

Červené a žluté tečky na mapě představují dostupné meteorologické stanice.

Když kurzor umístíte na tečku, zobrazí se název stanice.

Pak kliknutím zobrazíte stav a předpověď počasí.

Chcete-li změnit mapu, kliknutím na zelené tlačítko se znaménkem +mapu přiblížíte, kliknutím na zelené tlačítko se znaménkem – mapu oddálíte a kliknutím na zelené šipky přejdete na sousední mapy.


METAR-TAF: